Time;durP1;ratioP1;P1;durP2;ratioP2;P2;SDS_P1;SDS_P2;PMS_P1;PMS_P2;Temp;Humidity;BMP_temperature;BMP_pressure;BME280_temperature;BME280_humidity;BME280_pressure;Samples;Min_cycle;Max_cycle;Signal;HPM_P1;HPM_P2
2023/12/09 00:01:18;;;;;;;16.23;10.57;;;;;;;;;;6316931;28;20194;-62
2023/12/09 00:04:19;;;;;;;18.20;10.83;;;;;;;;;;6305414;28;20192;-62
2023/12/09 00:07:20;;;;;;;19.80;10.40;;;;;;;;;;6311358;28;20254;-63
2023/12/09 00:10:21;;;;;;;19.57;11.47;;;;;;;;;;6322947;28;20223;-63
2023/12/09 00:13:22;;;;;;;19.77;11.90;;;;;;;;;;6295927;28;20231;-63
2023/12/09 00:16:23;;;;;;;18.90;11.20;;;;;;;;;;6317302;28;20289;-63
2023/12/09 00:19:24;;;;;;;18.70;10.77;;;;;;;;;;6307957;28;20207;-62
2023/12/09 00:22:25;;;;;;;15.33;10.53;;;;;;;;;;6300302;28;20188;-63
2023/12/09 00:25:26;;;;;;;16.63;10.70;;;;;;;;;;6280553;28;20197;-63
2023/12/09 00:28:27;;;;;;;14.97;10.70;;;;;;;;;;6306041;28;20201;-63
2023/12/09 00:31:28;;;;;;;16.17;10.70;;;;;;;;;;6288508;28;20222;-62
2023/12/09 00:34:29;;;;;;;14.23;11.00;;;;;;;;;;6307243;28;20184;-62
2023/12/09 00:37:31;;;;;;;17.70;11.03;;;;;;;;;;6285062;28;20207;-63
2023/12/09 00:40:32;;;;;;;16.87;10.53;;;;;;;;;;6289037;28;20185;-63
2023/12/09 00:43:33;;;;;;;14.47;9.47;;;;;;;;;;6287306;28;20275;-62
2023/12/09 00:46:34;;;;;;;13.63;10.00;;;;;;;;;;6259138;28;20193;-63
2023/12/09 00:49:35;;;;;;;15.50;11.07;;;;;;;;;;6261623;28;20193;-63
2023/12/09 00:52:37;;;;;;;13.20;10.53;;;;;;;;;;6274688;28;20220;-62
2023/12/09 00:55:38;;;;;;;15.57;10.63;;;;;;;;;;6268477;28;20198;-63
2023/12/09 00:58:39;;;;;;;16.87;10.53;;;;;;;;;;6269853;28;20213;-63
2023/12/09 01:01:40;;;;;;;15.93;10.90;;;;;;;;;;6259449;28;20225;-62
2023/12/09 01:04:41;;;;;;;12.57;10.07;;;;;;;;;;6241422;28;20213;-63
2023/12/09 01:07:42;;;;;;;13.93;9.83;;;;;;;;;;6248977;28;20205;-62
2023/12/09 01:10:44;;;;;;;16.40;10.63;;;;;;;;;;6275522;28;20204;-63
2023/12/09 01:13:45;;;;;;;13.30;9.57;;;;;;;;;;6254325;28;20244;-63
2023/12/09 01:16:46;;;;;;;15.93;11.33;;;;;;;;;;6272749;28;20220;-62
2023/12/09 01:19:47;;;;;;;15.40;9.87;;;;;;;;;;6267783;28;20200;-63
2023/12/09 01:22:48;;;;;;;14.57;9.93;;;;;;;;;;6261535;28;20280;-62
2023/12/09 01:25:49;;;;;;;16.70;10.70;;;;;;;;;;6249759;28;20194;-62
2023/12/09 01:28:50;;;;;;;15.80;10.83;;;;;;;;;;6253007;28;20182;-62
2023/12/09 01:31:51;;;;;;;14.80;10.30;;;;;;;;;;6276804;28;20193;-62
2023/12/09 01:34:52;;;;;;;13.90;9.50;;;;;;;;;;6253679;28;20193;-62
2023/12/09 01:37:53;;;;;;;16.93;10.60;;;;;;;;;;6251478;28;20232;-62
2023/12/09 01:40:54;;;;;;;15.17;10.20;;;;;;;;;;6277070;28;20188;-62
2023/12/09 01:43:55;;;;;;;17.67;11.10;;;;;;;;;;6294821;28;20236;-63
2023/12/09 01:46:56;;;;;;;16.13;9.43;;;;;;;;;;6307619;28;20201;-62
2023/12/09 01:49:58;;;;;;;15.40;9.73;;;;;;;;;;6312593;28;20200;-62
2023/12/09 01:52:59;;;;;;;14.30;9.97;;;;;;;;;;6289922;28;20550;-62
2023/12/09 01:56:00;;;;;;;14.93;9.40;;;;;;;;;;6291510;28;20212;-62
2023/12/09 01:59:01;;;;;;;17.17;9.77;;;;;;;;;;6311220;28;20207;-62
2023/12/09 02:02:03;;;;;;;16.87;10.20;;;;;;;;;;6265881;28;20203;-62
2023/12/09 02:05:04;;;;;;;16.50;10.03;;;;;;;;;;6269816;28;20185;-63
2023/12/09 02:08:05;;;;;;;15.10;10.03;;;;;;;;;;6303155;28;20229;-62
2023/12/09 02:11:15;;;;;;;13.53;9.63;;;;;;;;;;6292503;28;20191;-62
2023/12/09 02:14:22;;;;;;;13.53;9.37;;;;;;;;;;6308047;28;20197;-62
2023/12/09 02:17:26;;;;;;;14.10;9.90;;;;;;;;;;6296990;28;20214;-62
2023/12/09 02:20:28;;;;;;;12.50;9.10;;;;;;;;;;6311450;28;20183;-62
2023/12/09 02:23:29;;;;;;;15.57;9.73;;;;;;;;;;6322525;28;20192;-62
2023/12/09 02:26:30;;;;;;;12.57;9.63;;;;;;;;;;6286545;28;20304;-62
2023/12/09 02:29:34;;;;;;;14.00;9.57;;;;;;;;;;6299523;28;20194;-62
2023/12/09 02:32:35;;;;;;;15.47;10.40;;;;;;;;;;6297326;28;20182;-63
2023/12/09 02:35:38;;;;;;;13.70;9.30;;;;;;;;;;6288740;28;20201;-63
2023/12/09 02:38:39;;;;;;;13.63;9.97;;;;;;;;;;6319290;28;20212;-62
2023/12/09 02:41:41;;;;;;;13.53;9.70;;;;;;;;;;6306714;28;20252;-63
2023/12/09 02:44:43;;;;;;;14.63;9.70;;;;;;;;;;6298694;28;20321;-62
2023/12/09 02:47:46;;;;;;;13.57;9.53;;;;;;;;;;6288352;28;20220;-62
2023/12/09 02:50:47;;;;;;;14.70;10.00;;;;;;;;;;6313283;28;20220;-62
2023/12/09 02:53:49;;;;;;;14.27;9.53;;;;;;;;;;6291278;28;20255;-62
2023/12/09 02:56:50;;;;;;;11.50;9.33;;;;;;;;;;6284728;28;20208;-62
2023/12/09 02:59:51;;;;;;;12.13;8.77;;;;;;;;;;6296888;28;20181;-62
2023/12/09 03:02:52;;;;;;;14.83;9.57;;;;;;;;;;6297155;28;20195;-62
2023/12/09 03:05:53;;;;;;;15.90;9.37;;;;;;;;;;6272189;28;20184;-63
2023/12/09 03:08:54;;;;;;;12.97;9.00;;;;;;;;;;6265634;28;20199;-62
2023/12/09 03:11:55;;;;;;;15.00;8.70;;;;;;;;;;6268107;28;20184;-62
2023/12/09 03:14:56;;;;;;;15.10;9.70;;;;;;;;;;6320534;28;20192;-62
2023/12/09 03:17:57;;;;;;;13.43;9.20;;;;;;;;;;6282421;28;20219;-62
2023/12/09 03:20:58;;;;;;;14.77;8.40;;;;;;;;;;6290933;28;20187;-62
2023/12/09 03:23:59;;;;;;;14.10;9.67;;;;;;;;;;6297426;28;20188;-63
2023/12/09 03:27:00;;;;;;;14.73;9.70;;;;;;;;;;6295132;28;20262;-63
2023/12/09 03:30:02;;;;;;;15.67;9.87;;;;;;;;;;6269759;28;20713;-62
2023/12/09 03:33:03;;;;;;;12.53;8.97;;;;;;;;;;6284872;28;20199;-63
2023/12/09 03:36:05;;;;;;;11.10;8.37;;;;;;;;;;6333261;28;20348;-62
2023/12/09 03:39:07;;;;;;;15.50;8.83;;;;;;;;;;6299835;28;20192;-62
2023/12/09 03:42:08;;;;;;;14.13;9.23;;;;;;;;;;6276633;28;20222;-62
2023/12/09 03:45:09;;;;;;;15.97;9.60;;;;;;;;;;6283506;28;20310;-63
2023/12/09 03:48:10;;;;;;;15.80;9.97;;;;;;;;;;6280748;28;20288;-62
2023/12/09 03:51:12;;;;;;;15.87;9.70;;;;;;;;;;6271341;28;20216;-63
2023/12/09 03:54:13;;;;;;;13.77;9.33;;;;;;;;;;6271081;28;20201;-62
2023/12/09 03:57:15;;;;;;;15.80;9.33;;;;;;;;;;6281299;28;20269;-63
2023/12/09 04:00:16;;;;;;;14.93;10.83;;;;;;;;;;6311934;28;20191;-63
2023/12/09 04:03:18;;;;;;;13.57;9.63;;;;;;;;;;6296862;28;20222;-63
2023/12/09 04:06:20;;;;;;;13.40;9.27;;;;;;;;;;6299595;28;20201;-63
2023/12/09 04:09:22;;;;;;;13.43;9.57;;;;;;;;;;6292730;28;20201;-63
2023/12/09 04:12:23;;;;;;;13.97;9.10;;;;;;;;;;6288457;28;20197;-63
2023/12/09 04:15:24;;;;;;;15.00;10.20;;;;;;;;;;6278410;28;20196;-63
2023/12/09 04:18:25;;;;;;;11.37;8.47;;;;;;;;;;6304805;28;20274;-63
2023/12/09 04:21:26;;;;;;;12.03;8.47;;;;;;;;;;6312656;28;20205;-63
2023/12/09 04:24:27;;;;;;;15.87;9.77;;;;;;;;;;6297650;28;20279;-63
2023/12/09 04:27:28;;;;;;;14.00;9.10;;;;;;;;;;6287577;28;20232;-63
2023/12/09 04:30:29;;;;;;;15.00;10.23;;;;;;;;;;6294483;28;20196;-63
2023/12/09 04:33:30;;;;;;;16.17;9.23;;;;;;;;;;6337298;28;20197;-63
2023/12/09 04:36:31;;;;;;;12.17;8.27;;;;;;;;;;6291447;28;20216;-63
2023/12/09 04:39:32;;;;;;;14.93;9.60;;;;;;;;;;6291284;28;20199;-63
2023/12/09 04:42:33;;;;;;;15.97;9.33;;;;;;;;;;6289185;28;20235;-63
2023/12/09 04:45:34;;;;;;;14.20;8.80;;;;;;;;;;6279002;28;20647;-63
2023/12/09 04:48:35;;;;;;;13.57;9.27;;;;;;;;;;6312657;28;20198;-63
2023/12/09 04:51:36;;;;;;;14.00;9.30;;;;;;;;;;6311123;28;20193;-63
2023/12/09 04:54:37;;;;;;;13.07;9.80;;;;;;;;;;6289293;28;20199;-63
2023/12/09 04:57:38;;;;;;;14.87;9.03;;;;;;;;;;6312609;28;20229;-63
2023/12/09 05:00:39;;;;;;;12.93;9.30;;;;;;;;;;6286940;28;20196;-63
2023/12/09 05:03:41;;;;;;;13.00;9.33;;;;;;;;;;6294079;28;20280;-63
2023/12/09 05:06:42;;;;;;;12.17;9.07;;;;;;;;;;6310472;28;20271;-63
2023/12/09 05:09:43;;;;;;;15.37;9.83;;;;;;;;;;6278626;28;20200;-63
2023/12/09 05:12:44;;;;;;;13.97;9.23;;;;;;;;;;6286860;28;20255;-63
2023/12/09 05:15:45;;;;;;;12.60;8.80;;;;;;;;;;6313753;28;20199;-63
2023/12/09 05:18:46;;;;;;;13.30;9.10;;;;;;;;;;6330026;28;20249;-63
2023/12/09 05:21:47;;;;;;;13.37;8.87;;;;;;;;;;6273009;28;20215;-63
2023/12/09 05:24:48;;;;;;;11.97;9.27;;;;;;;;;;6291237;28;20185;-63
2023/12/09 05:27:49;;;;;;;14.30;9.17;;;;;;;;;;6281565;28;20183;-63
2023/12/09 05:30:51;;;;;;;15.93;9.83;;;;;;;;;;6303291;28;20253;-63
2023/12/09 05:33:52;;;;;;;12.50;8.73;;;;;;;;;;6293621;28;20289;-63
2023/12/09 05:36:53;;;;;;;12.30;8.87;;;;;;;;;;6269504;28;20209;-63
2023/12/09 05:39:55;;;;;;;14.73;9.70;;;;;;;;;;6285159;28;20237;-63
2023/12/09 05:42:56;;;;;;;15.40;10.53;;;;;;;;;;6296276;28;20236;-63
2023/12/09 05:45:57;;;;;;;17.60;10.83;;;;;;;;;;6292965;28;20222;-63
2023/12/09 05:48:58;;;;;;;15.17;10.33;;;;;;;;;;6296721;28;20255;-63
2023/12/09 05:51:59;;;;;;;12.60;9.23;;;;;;;;;;6308484;28;20181;-63
2023/12/09 05:55:00;;;;;;;15.40;10.20;;;;;;;;;;6308406;28;20177;-63
2023/12/09 05:58:02;;;;;;;15.93;10.90;;;;;;;;;;6306840;28;20249;-63
2023/12/09 06:01:03;;;;;;;17.87;10.63;;;;;;;;;;6290684;28;20267;-63
2023/12/09 06:04:04;;;;;;;14.90;10.10;;;;;;;;;;6277573;28;20193;-63
2023/12/09 06:07:06;;;;;;;15.83;10.73;;;;;;;;;;6287829;28;20256;-63
2023/12/09 06:10:07;;;;;;;15.47;10.63;;;;;;;;;;6300835;28;20194;-63
2023/12/09 06:13:08;;;;;;;16.57;11.73;;;;;;;;;;6306567;28;20192;-63
2023/12/09 06:16:09;;;;;;;16.17;9.90;;;;;;;;;;6284935;28;22077;-63
2023/12/09 06:19:10;;;;;;;16.73;10.10;;;;;;;;;;6283166;28;20224;-63
2023/12/09 06:22:11;;;;;;;17.53;11.10;;;;;;;;;;6319555;28;20183;-63
2023/12/09 06:25:12;;;;;;;17.03;10.13;;;;;;;;;;6304613;28;20220;-63
2023/12/09 06:28:13;;;;;;;15.47;10.57;;;;;;;;;;6293217;28;20227;-63
2023/12/09 06:31:14;;;;;;;18.07;11.20;;;;;;;;;;6285705;28;20196;-63
2023/12/09 06:34:15;;;;;;;17.73;11.10;;;;;;;;;;6280680;28;20203;-63
2023/12/09 06:37:17;;;;;;;14.83;9.90;;;;;;;;;;6286510;28;20212;-63
2023/12/09 06:40:18;;;;;;;18.57;10.63;;;;;;;;;;6273285;28;20192;-63
2023/12/09 06:43:19;;;;;;;16.97;10.83;;;;;;;;;;6285013;28;20227;-64
2023/12/09 06:46:20;;;;;;;17.57;11.87;;;;;;;;;;6295206;28;20189;-63
2023/12/09 06:49:21;;;;;;;18.50;12.77;;;;;;;;;;6279703;28;20279;-63
2023/12/09 06:52:22;;;;;;;17.93;12.53;;;;;;;;;;6285038;28;20189;-63
2023/12/09 06:55:23;;;;;;;19.70;11.70;;;;;;;;;;6316547;28;20665;-63
2023/12/09 06:58:24;;;;;;;17.77;12.83;;;;;;;;;;6282811;28;20298;-63
2023/12/09 07:01:29;;;;;;;18.37;11.37;;;;;;;;;;6293308;28;20191;-64
2023/12/09 07:04:32;;;;;;;15.67;10.97;;;;;;;;;;6298951;28;20182;-63
2023/12/09 07:07:33;;;;;;;13.20;10.63;;;;;;;;;;6298315;28;20201;-63
2023/12/09 07:10:35;;;;;;;16.20;11.33;;;;;;;;;;6290714;28;20207;-63
2023/12/09 07:13:36;;;;;;;17.33;11.30;;;;;;;;;;6307564;28;20196;-63
2023/12/09 07:16:37;;;;;;;16.17;11.83;;;;;;;;;;6282446;28;20213;-63
2023/12/09 07:19:38;;;;;;;16.63;11.93;;;;;;;;;;6311594;28;20203;-63
2023/12/09 07:22:39;;;;;;;19.70;13.07;;;;;;;;;;6312827;28;20253;-62
2023/12/09 07:25:40;;;;;;;19.30;11.47;;;;;;;;;;6294679;28;20196;-63
2023/12/09 07:28:41;;;;;;;20.30;12.33;;;;;;;;;;6304436;28;20204;-63
2023/12/09 07:31:42;;;;;;;18.57;11.77;;;;;;;;;;6298734;28;20189;-63
2023/12/09 07:34:43;;;;;;;16.47;11.10;;;;;;;;;;6310808;28;20184;-65
2023/12/09 07:38:11;;;;;;;14.03;10.77;;;;;;;;;;6288372;28;20233;-63
2023/12/09 07:41:14;;;;;;;16.53;11.80;;;;;;;;;;6290932;28;20193;-62
2023/12/09 07:44:15;;;;;;;18.60;11.57;;;;;;;;;;6307658;28;20304;-62
2023/12/09 07:47:16;;;;;;;18.47;12.47;;;;;;;;;;6290833;28;20192;-63
2023/12/09 07:50:17;;;;;;;19.20;11.77;;;;;;;;;;6300399;28;20195;-62
2023/12/09 07:53:19;;;;;;;17.63;11.27;;;;;;;;;;6286540;28;20198;-63
2023/12/09 07:56:20;;;;;;;20.00;12.40;;;;;;;;;;6316668;28;20212;-62
2023/12/09 07:59:21;;;;;;;18.17;11.63;;;;;;;;;;6295229;28;20261;-63
2023/12/09 08:02:22;;;;;;;18.37;11.87;;;;;;;;;;6286106;28;20564;-64
2023/12/09 08:05:23;;;;;;;19.40;12.10;;;;;;;;;;6324182;28;20191;-65
2023/12/09 08:08:24;;;;;;;16.40;11.83;;;;;;;;;;6314458;28;20195;-63
2023/12/09 08:11:25;;;;;;;19.83;11.73;;;;;;;;;;6310565;28;20199;-62
2023/12/09 08:14:26;;;;;;;18.13;12.13;;;;;;;;;;6309803;28;20195;-64
2023/12/09 08:17:27;;;;;;;14.53;11.53;;;;;;;;;;6290521;28;20224;-61
2023/12/09 08:20:28;;;;;;;18.93;12.47;;;;;;;;;;6288167;28;20287;-61
2023/12/09 08:23:29;;;;;;;18.63;12.93;;;;;;;;;;6293193;28;20191;-61
2023/12/09 08:26:31;;;;;;;17.10;12.27;;;;;;;;;;6310208;28;20214;-66
2023/12/09 08:29:32;;;;;;;13.50;11.80;;;;;;;;;;6301722;28;20238;-62
2023/12/09 08:32:33;;;;;;;18.43;12.10;;;;;;;;;;6306674;28;20247;-62
2023/12/09 08:35:34;;;;;;;15.10;10.70;;;;;;;;;;6293021;28;20268;-62
2023/12/09 08:38:35;;;;;;;16.47;12.33;;;;;;;;;;6289708;28;20255;-61
2023/12/09 08:41:36;;;;;;;18.17;11.60;;;;;;;;;;6317400;28;20212;-63
2023/12/09 08:44:37;;;;;;;17.57;13.00;;;;;;;;;;6328470;28;20320;-63
2023/12/09 08:47:43;;;;;;;17.77;12.37;;;;;;;;;;6300232;28;20205;-62
2023/12/09 08:50:44;;;;;;;15.50;11.83;;;;;;;;;;6319215;28;20185;-62
2023/12/09 08:53:45;;;;;;;19.00;13.10;;;;;;;;;;6319829;28;20199;-62
2023/12/09 08:56:46;;;;;;;18.33;12.73;;;;;;;;;;6314144;28;20213;-62
2023/12/09 08:59:47;;;;;;;19.00;12.53;;;;;;;;;;6295650;28;20641;-62
2023/12/09 09:02:48;;;;;;;16.50;12.57;;;;;;;;;;6313966;28;20184;-62
2023/12/09 09:05:49;;;;;;;15.73;11.67;;;;;;;;;;6300428;28;20199;-62
2023/12/09 09:08:50;;;;;;;16.67;11.90;;;;;;;;;;6292642;28;20199;-62
2023/12/09 09:11:51;;;;;;;18.63;12.03;;;;;;;;;;6310650;28;20184;-62
2023/12/09 09:14:52;;;;;;;22.07;13.17;;;;;;;;;;6296322;28;20192;-62
2023/12/09 09:17:53;;;;;;;17.27;12.00;;;;;;;;;;6316258;28;20219;-62
2023/12/09 09:20:54;;;;;;;20.57;11.67;;;;;;;;;;6303031;28;20192;-62
2023/12/09 09:23:55;;;;;;;19.30;11.50;;;;;;;;;;6313676;28;20187;-62
2023/12/09 09:26:57;;;;;;;18.03;10.87;;;;;;;;;;6314989;28;20195;-62
2023/12/09 09:29:58;;;;;;;20.37;11.50;;;;;;;;;;6304291;28;20213;-62
2023/12/09 09:32:59;;;;;;;17.97;11.70;;;;;;;;;;6283494;28;20212;-62
2023/12/09 09:36:00;;;;;;;18.20;11.03;;;;;;;;;;6299473;28;20267;-62
2023/12/09 09:39:01;;;;;;;17.37;12.43;;;;;;;;;;6294970;28;20248;-62
2023/12/09 09:42:09;;;;;;;19.70;12.50;;;;;;;;;;6308262;28;20187;-61
2023/12/09 09:45:10;;;;;;;16.90;11.40;;;;;;;;;;6305614;28;20228;-63
2023/12/09 09:48:12;;;;;;;18.37;12.20;;;;;;;;;;6305974;28;20278;-62
2023/12/09 09:51:16;;;;;;;17.43;11.63;;;;;;;;;;6285109;28;20189;-62
2023/12/09 09:54:24;;;;;;;17.87;11.53;;;;;;;;;;6311713;28;20245;-62
2023/12/09 09:57:25;;;;;;;17.77;11.93;;;;;;;;;;6302968;28;20204;-63
2023/12/09 10:00:28;;;;;;;18.50;12.27;;;;;;;;;;6294118;28;20195;-63
2023/12/09 10:03:29;;;;;;;17.00;12.83;;;;;;;;;;6289533;28;20223;-62
2023/12/09 10:06:30;;;;;;;17.27;11.40;;;;;;;;;;6280060;28;20196;-62
2023/12/09 10:09:33;;;;;;;17.23;12.17;;;;;;;;;;6295500;28;20185;-62
2023/12/09 10:12:34;;;;;;;18.17;11.63;;;;;;;;;;6282009;28;20272;-62
2023/12/09 10:15:36;;;;;;;17.07;11.67;;;;;;;;;;6303323;28;20200;-61
2023/12/09 10:18:37;;;;;;;15.97;11.40;;;;;;;;;;6285904;28;20276;-61
2023/12/09 10:21:38;;;;;;;17.33;11.97;;;;;;;;;;6301655;28;20189;-62
2023/12/09 10:24:39;;;;;;;17.47;11.93;;;;;;;;;;6299995;28;20216;-61
2023/12/09 10:27:41;;;;;;;15.33;10.87;;;;;;;;;;6298814;28;20192;-61
2023/12/09 10:30:42;;;;;;;17.20;12.47;;;;;;;;;;6303203;28;20219;-61
2023/12/09 10:33:44;;;;;;;15.87;12.07;;;;;;;;;;6310917;28;20263;-61
2023/12/09 10:36:45;;;;;;;15.93;12.23;;;;;;;;;;6310040;28;20262;-61
2023/12/09 10:39:52;;;;;;;18.47;13.37;;;;;;;;;;6272182;28;20200;-61
2023/12/09 10:42:53;;;;;;;19.77;13.83;;;;;;;;;;6303580;28;20229;-61
2023/12/09 10:45:54;;;;;;;18.30;13.37;;;;;;;;;;6301967;28;20206;-61
2023/12/09 10:48:55;;;;;;;22.73;13.40;;;;;;;;;;6292962;28;20188;-64
2023/12/09 10:51:56;;;;;;;19.23;13.43;;;;;;;;;;6310865;28;20210;-62
2023/12/09 10:54:57;;;;;;;19.20;13.03;;;;;;;;;;6308367;28;20191;-61
2023/12/09 10:57:59;;;;;;;20.43;13.27;;;;;;;;;;6312654;28;20231;-61
2023/12/09 11:01:01;;;;;;;18.00;12.47;;;;;;;;;;6326873;28;20214;-61
2023/12/09 11:04:03;;;;;;;21.97;13.67;;;;;;;;;;6314008;28;20194;-61
2023/12/09 11:07:05;;;;;;;20.90;13.20;;;;;;;;;;6315057;28;20193;-61
2023/12/09 11:10:06;;;;;;;18.83;14.03;;;;;;;;;;6312739;28;20191;-61
2023/12/09 11:13:07;;;;;;;20.07;14.27;;;;;;;;;;6316995;28;20194;-61
2023/12/09 11:16:08;;;;;;;21.80;13.90;;;;;;;;;;6298166;28;20208;-61
2023/12/09 11:19:17;;;;;;;19.50;13.73;;;;;;;;;;6299053;28;20193;-61
2023/12/09 11:22:19;;;;;;;19.70;14.37;;;;;;;;;;6303033;28;20192;-61
2023/12/09 11:25:25;;;;;;;17.43;14.07;;;;;;;;;;6309979;28;20238;-61
2023/12/09 11:28:26;;;;;;;17.77;13.00;;;;;;;;;;6289789;28;20307;-61
2023/12/09 11:31:33;;;;;;;22.53;14.57;;;;;;;;;;6305777;28;20200;-62
2023/12/09 11:34:35;;;;;;;21.00;14.70;;;;;;;;;;6306861;28;20238;-61
2023/12/09 11:37:36;;;;;;;20.63;14.33;;;-0.90;85.10;;;;;;6316498;28;20238;-61
2023/12/09 11:40:37;;;;;;;17.07;12.93;;;1.20;87.50;;;;;;6282118;28;20193;-61
2023/12/09 11:43:39;;;;;;;21.77;15.30;;;1.30;87.20;;;;;;6299549;28;20234;-61
2023/12/09 11:46:39;;;;;;;21.27;15.03;;;1.40;85.20;;;;;;6298181;28;20200;-61
2023/12/09 11:49:41;;;;;;;20.43;15.10;;;1.40;85.50;;;;;;6286981;28;20192;-61
2023/12/09 11:52:43;;;;;;;20.77;14.93;;;1.50;85.70;;;;;;6289236;28;20199;-61
2023/12/09 11:55:45;;;;;;;18.50;13.90;;;;;;;;;;6309227;28;20184;-61
2023/12/09 11:58:46;;;;;;;18.10;14.20;;;1.50;86.50;;;;;;6293166;28;20216;-61
2023/12/09 12:01:46;;;;;;;18.73;12.60;;;1.70;86.10;;;;;;6300233;28;20192;-61
2023/12/09 12:04:47;;;;;;;17.93;14.50;;;1.80;87.30;;;;;;6295647;28;20191;-61
2023/12/09 12:07:48;;;;;;;18.13;14.03;;;1.80;83.50;;;;;;6282565;28;20253;-61
2023/12/09 12:10:48;;;;;;;20.17;13.87;;;1.90;86.70;;;;;;6275040;28;20196;-61
2023/12/09 12:13:49;;;;;;;22.47;14.70;;;1.90;84.80;;;;;;6267668;28;20207;-65
2023/12/09 12:16:52;;;;;;;21.77;16.97;;;2.00;85.70;;;;;;6292476;28;20220;-65
2023/12/09 12:19:53;;;;;;;22.30;17.13;;;2.20;85.50;;;;;;6299958;28;20288;-66
2023/12/09 12:22:54;;;;;;;22.87;17.10;;;2.20;83.40;;;;;;6265405;28;21623;-64
2023/12/09 12:25:55;;;;;;;24.57;17.33;;;2.20;83.20;;;;;;6278300;28;20257;-61
2023/12/09 12:28:57;;;;;;;21.47;17.50;;;2.20;83.00;;;;;;6298536;28;20197;-62
2023/12/09 12:31:59;;;;;;;22.37;17.17;;;2.20;84.40;;;;;;6288250;28;20353;-66
2023/12/09 12:35:03;;;;;;;24.60;18.27;;;2.40;83.30;;;;;;6295474;28;20196;-63
2023/12/09 12:38:04;;;;;;;21.50;17.70;;;2.40;83.80;;;;;;6284639;28;20285;-63
2023/12/09 12:41:06;;;;;;;22.60;18.50;;;;;;;;;;6282367;28;20221;-65
2023/12/09 12:44:07;;;;;;;26.30;19.13;;;;;;;;;;6299275;28;20259;-64
2023/12/09 12:47:09;;;;;;;26.40;17.90;;;;;;;;;;6294649;28;20283;-64
2023/12/09 12:50:11;;;;;;;27.23;20.30;;;;;;;;;;6291894;28;20209;-63
2023/12/09 12:53:13;;;;;;;25.80;19.77;;;;;;;;;;6302656;28;20197;-63
2023/12/09 12:56:14;;;;;;;26.43;20.37;;;;;;;;;;6279747;28;20285;-64
2023/12/09 12:59:15;;;;;;;28.23;20.03;;;;;;;;;;6306843;28;20201;-63
2023/12/09 13:02:16;;;;;;;26.07;19.17;;;;;;;;;;6282897;28;20196;-63
2023/12/09 13:05:17;;;;;;;24.63;19.77;;;;;;;;;;6290237;28;20306;-63
2023/12/09 13:08:18;;;;;;;26.13;20.13;;;;;;;;;;6290421;28;20220;-63
2023/12/09 13:11:20;;;;;;;27.50;22.07;;;;;;;;;;6296521;28;20211;-64
2023/12/09 13:14:21;;;;;;;25.83;21.17;;;;;;;;;;6297544;28;20188;-63
2023/12/09 13:17:22;;;;;;;28.87;21.37;;;;;;;;;;6299981;28;20212;-63
2023/12/09 13:20:23;;;;;;;27.53;21.40;;;;;;;;;;6300245;28;20198;-64
2023/12/09 13:23:24;;;;;;;29.90;22.53;;;;;;;;;;6297650;28;20189;-63
2023/12/09 13:26:25;;;;;;;25.70;20.33;;;;;;;;;;6299927;28;20280;-63
2023/12/09 13:29:26;;;;;;;31.40;22.60;;;;;;;;;;6286919;28;20203;-63
2023/12/09 13:32:27;;;;;;;26.90;20.50;;;;;;;;;;6289582;28;20220;-65
2023/12/09 13:35:28;;;;;;;23.67;20.00;;;2.50;84.30;;;;;;6311806;28;20184;-67
2023/12/09 13:38:29;;;;;;;25.27;20.80;;;2.40;84.10;;;;;;6300161;28;20209;-66
2023/12/09 13:41:30;;;;;;;27.07;20.47;;;2.40;82.00;;;;;;6266875;28;20203;-67
2023/12/09 13:44:31;;;;;;;24.87;19.87;;;2.40;81.60;;;;;;6266787;28;20322;-62
2023/12/09 13:47:32;;;;;;;24.93;18.93;;;2.30;82.30;;;;;;6326762;28;20567;-62
2023/12/09 13:50:32;;;;;;;27.07;18.43;;;2.30;83.60;;;;;;6296035;28;20298;-62
2023/12/09 13:53:33;;;;;;;26.93;19.50;;;2.40;84.30;;;;;;6291602;28;20240;-63
2023/12/09 13:56:35;;;;;;;26.33;19.73;;;2.50;84.90;;;;;;6277078;28;20220;-62
2023/12/09 13:59:36;;;;;;;27.97;20.40;;;2.40;81.40;;;;;;6273193;28;20196;-63
2023/12/09 14:02:37;;;;;;;26.40;19.57;;;2.40;83.30;;;;;;6281206;28;20325;-63
2023/12/09 14:05:37;;;;;;;25.13;19.03;;;2.30;82.60;;;;;;6275384;28;20196;-63
2023/12/09 14:08:38;;;;;;;26.80;20.37;;;2.20;83.10;;;;;;6293352;28;20200;-63
2023/12/09 14:11:39;;;;;;;22.67;18.13;;;2.10;82.10;;;;;;6290699;28;20192;-63
2023/12/09 14:14:40;;;;;;;29.50;21.80;;;2.10;83.50;;;;;;6279107;28;20201;-63
2023/12/09 14:17:42;;;;;;;26.83;20.90;;;2.00;82.70;;;;;;6284579;28;20253;-63
2023/12/09 14:20:42;;;;;;;27.17;20.27;;;1.80;84.70;;;;;;6284311;28;20196;-63
2023/12/09 14:23:43;;;;;;;29.43;21.47;;;1.80;85.70;;;;;;6286071;28;20263;-63
2023/12/09 14:26:44;;;;;;;30.63;21.47;;;;;;;;;;6283142;28;20283;-63
2023/12/09 14:29:45;;;;;;;30.30;23.53;;;;;;;;;;6297540;28;20185;-63
2023/12/09 14:32:47;;;;;;;30.13;22.97;;;;;;;;;;6300738;28;20283;-63
2023/12/09 14:35:48;;;;;;;32.97;23.47;;;;;;;;;;6301402;28;20199;-63
2023/12/09 14:38:49;;;;;;;34.73;23.87;;;;;;;;;;6288959;28;20213;-62
2023/12/09 14:41:50;;;;;;;35.20;24.40;;;;;;;;;;6297328;28;20181;-62
2023/12/09 14:44:51;;;;;;;34.30;24.83;;;;;;;;;;6318237;28;20228;-63
2023/12/09 14:47:52;;;;;;;33.93;23.93;;;;;;;;;;6290841;28;20203;-62
2023/12/09 14:50:53;;;;;;;32.57;22.73;;;;;;;;;;6280880;28;20196;-62
2023/12/09 14:53:54;;;;;;;34.10;23.57;;;;;;;;;;6279647;28;20196;-62
2023/12/09 14:56:56;;;;;;;33.93;24.77;;;;;;;;;;6283076;28;20212;-62
2023/12/09 14:59:57;;;;;;;34.63;23.77;;;;;;;;;;6295245;28;20200;-62
2023/12/09 15:02:59;;;;;;;33.00;23.77;;;;;;;;;;6293980;28;20718;-62
2023/12/09 15:06:00;;;;;;;39.07;24.70;;;;;;;;;;6302617;28;20254;-62
2023/12/09 15:09:02;;;;;;;34.23;26.17;;;;;;;;;;6280855;28;20208;-62
2023/12/09 15:12:03;;;;;;;32.20;23.27;;;;;;;;;;6278864;28;20189;-62
2023/12/09 15:15:04;;;;;;;36.17;25.23;;;;;;;;;;6289651;28;20184;-62
2023/12/09 15:18:05;;;;;;;33.37;24.80;;;;;;;;;;6298210;28;20216;-62
2023/12/09 15:21:07;;;;;;;35.47;24.43;;;;;;;;;;6297165;28;20192;-62
2023/12/09 15:24:08;;;;;;;34.83;25.20;;;;;;;;;;6286457;28;20193;-62
2023/12/09 15:27:09;;;;;;;35.67;24.87;;;;;;;;;;6286896;28;20192;-62
2023/12/09 15:30:11;;;;;;;36.77;25.40;;;;;;;;;;6289589;28;20195;-62
2023/12/09 15:33:12;;;;;;;37.83;25.90;;;;;;;;;;6288705;28;20200;-62
2023/12/09 15:36:13;;;;;;;36.20;27.47;;;;;;;;;;6288363;28;20201;-62
2023/12/09 15:39:16;;;;;;;38.03;26.40;;;;;;;;;;6302117;28;20197;-62
2023/12/09 15:42:17;;;;;;;33.70;25.50;;;;;;;;;;6288166;28;20242;-62
2023/12/09 15:45:18;;;;;;;37.97;26.77;;;;;;;;;;6296142;28;20205;-62
2023/12/09 15:48:19;;;;;;;37.83;26.53;;;;;;;;;;6298983;28;20211;-62
2023/12/09 15:51:20;;;;;;;36.60;25.90;;;;;;;;;;6297536;28;20212;-62
2023/12/09 15:54:22;;;;;;;34.23;25.20;;;;;;;;;;6309427;28;20184;-62
2023/12/09 15:57:23;;;;;;;36.43;25.80;;;;;;;;;;6294093;28;20248;-62
2023/12/09 16:00:25;;;;;;;36.27;25.00;;;;;;;;;;6288230;28;20189;-62
2023/12/09 16:03:26;;;;;;;39.40;25.73;;;;;;;;;;6306762;28;20253;-62
2023/12/09 16:06:28;;;;;;;38.03;24.87;;;;;;;;;;6291515;28;20185;-62
2023/12/09 16:09:32;;;;;;;34.37;25.27;;;;;;;;;;6303057;28;20192;-62
2023/12/09 16:12:33;;;;;;;39.93;27.00;;;;;;;;;;6292898;28;20190;-62
2023/12/09 16:15:34;;;;;;;41.60;26.53;;;;;;;;;;6291251;28;20213;-62
2023/12/09 16:18:36;;;;;;;36.37;25.43;;;;;;;;;;6299143;28;20236;-62
2023/12/09 16:21:37;;;;;;;38.20;25.83;;;;;;;;;;6302850;28;20189;-62
2023/12/09 16:24:38;;;;;;;42.67;26.80;;;;;;;;;;6283022;28;20185;-62
2023/12/09 16:27:39;;;;;;;39.13;25.37;;;;;;;;;;6304491;28;20235;-62
2023/12/09 16:30:40;;;;;;;39.23;26.20;;;;;;;;;;6286291;28;20201;-62
2023/12/09 16:33:42;;;;;;;40.27;26.30;;;;;;;;;;6301694;28;20200;-62
2023/12/09 16:36:43;;;;;;;44.50;26.97;;;;;;;;;;6310995;28;20261;-62
2023/12/09 16:39:44;;;;;;;42.10;26.43;;;;;;;;;;6291058;28;20191;-62
2023/12/09 16:42:45;;;;;;;41.60;25.80;;;;;;;;;;6306963;28;20229;-62
2023/12/09 16:45:46;;;;;;;33.13;24.10;;;;;;;;;;6298187;28;20198;-62
2023/12/09 16:48:47;;;;;;;39.17;24.40;;;;;;;;;;6282789;28;20196;-62
2023/12/09 16:51:49;;;;;;;39.83;26.13;;;;;;;;;;6306331;28;20630;-62
2023/12/09 16:54:50;;;;;;;44.30;26.43;;;;;;;;;;6286553;28;20223;-62
2023/12/09 16:57:51;;;;;;;42.30;25.83;;;;;;;;;;6304708;28;20258;-62
2023/12/09 17:00:52;;;;;;;39.30;25.00;;;;;;;;;;6308387;28;20233;-62
2023/12/09 17:03:53;;;;;;;42.13;27.27;;;;;;;;;;6297223;28;20192;-62
2023/12/09 17:06:54;;;;;;;42.27;25.60;;;;;;;;;;6290501;28;20223;-62
2023/12/09 17:09:55;;;;;;;43.47;26.97;;;;;;;;;;6304732;28;20195;-62
2023/12/09 17:12:56;;;;;;;39.87;25.80;;;;;;;;;;6298892;28;20642;-62
2023/12/09 17:15:57;;;;;;;44.97;27.23;;;;;;;;;;6301874;28;20201;-62
2023/12/09 17:18:59;;;;;;;46.00;27.10;;;;;;;;;;6294572;28;20216;-62
2023/12/09 17:22:00;;;;;;;48.00;26.73;;;;;;;;;;6301964;28;20195;-62
2023/12/09 17:25:01;;;;;;;45.03;28.03;;;;;;;;;;6314173;28;20189;-62